sensor_id;sensor_type;location;lat;lon;timestamp;temperature;humidity
52879;DHT22;38747;53.140;6.498;2023-07-13T00:01:13;16.30;99.90
52879;DHT22;38747;53.140;6.498;2023-07-13T00:03:39;16.30;99.90
52879;DHT22;38747;53.140;6.498;2023-07-13T00:06:07;16.20;99.90
52879;DHT22;38747;53.140;6.498;2023-07-13T00:08:33;16.20;99.90
52879;DHT22;38747;53.140;6.498;2023-07-13T00:11:00;16.20;99.90
52879;DHT22;38747;53.140;6.498;2023-07-13T00:13:26;16.20;99.90
52879;DHT22;38747;53.140;6.498;2023-07-13T00:15:51;16.20;99.90
52879;DHT22;38747;53.140;6.498;2023-07-13T00:18:19;16.20;99.90
52879;DHT22;38747;53.140;6.498;2023-07-13T00:20:45;16.30;99.90
52879;DHT22;38747;53.140;6.498;2023-07-13T00:23:11;16.30;99.90
52879;DHT22;38747;53.140;6.498;2023-07-13T00:25:37;16.30;99.90
52879;DHT22;38747;53.140;6.498;2023-07-13T00:28:03;16.30;99.90
52879;DHT22;38747;53.140;6.498;2023-07-13T00:30:28;16.20;99.90
52879;DHT22;38747;53.140;6.498;2023-07-13T00:32:54;16.30;99.90
52879;DHT22;38747;53.140;6.498;2023-07-13T00:35:20;16.30;99.90
52879;DHT22;38747;53.140;6.498;2023-07-13T00:37:45;16.30;99.90
52879;DHT22;38747;53.140;6.498;2023-07-13T00:40:13;16.30;99.90
52879;DHT22;38747;53.140;6.498;2023-07-13T00:42:39;16.30;99.90
52879;DHT22;38747;53.140;6.498;2023-07-13T00:47:31;16.30;99.90
52879;DHT22;38747;53.140;6.498;2023-07-13T00:49:57;16.30;99.90
52879;DHT22;38747;53.140;6.498;2023-07-13T00:52:23;16.30;99.90
52879;DHT22;38747;53.140;6.498;2023-07-13T00:54:49;16.30;99.90
52879;DHT22;38747;53.140;6.498;2023-07-13T00:57:20;16.30;99.90
52879;DHT22;38747;53.140;6.498;2023-07-13T00:59:49;16.20;99.90
52879;DHT22;38747;53.140;6.498;2023-07-13T01:02:16;16.20;99.90
52879;DHT22;38747;53.140;6.498;2023-07-13T01:04:42;16.20;99.90
52879;DHT22;38747;53.140;6.498;2023-07-13T01:07:09;16.10;99.90
52879;DHT22;38747;53.140;6.498;2023-07-13T01:09:36;16.10;99.90
52879;DHT22;38747;53.140;6.498;2023-07-13T01:12:02;16.10;99.90
52879;DHT22;38747;53.140;6.498;2023-07-13T01:14:28;16.10;99.90
52879;DHT22;38747;53.140;6.498;2023-07-13T01:16:54;16.10;99.90
52879;DHT22;38747;53.140;6.498;2023-07-13T01:19:44;16.00;99.90
52879;DHT22;38747;53.140;6.498;2023-07-13T01:22:19;16.00;99.90
52879;DHT22;38747;53.140;6.498;2023-07-13T01:24:48;16.00;99.90
52879;DHT22;38747;53.140;6.498;2023-07-13T01:27:17;16.00;99.90
52879;DHT22;38747;53.140;6.498;2023-07-13T01:29:45;16.00;99.90
52879;DHT22;38747;53.140;6.498;2023-07-13T01:32:16;16.00;99.90
52879;DHT22;38747;53.140;6.498;2023-07-13T01:34:42;16.00;99.90
52879;DHT22;38747;53.140;6.498;2023-07-13T01:37:10;16.00;99.90
52879;DHT22;38747;53.140;6.498;2023-07-13T01:39:36;16.10;99.90
52879;DHT22;38747;53.140;6.498;2023-07-13T01:42:03;16.00;99.90
52879;DHT22;38747;53.140;6.498;2023-07-13T01:44:29;16.10;99.90
52879;DHT22;38747;53.140;6.498;2023-07-13T01:46:55;16.00;99.90
52879;DHT22;38747;53.140;6.498;2023-07-13T01:49:21;16.10;99.90
52879;DHT22;38747;53.140;6.498;2023-07-13T01:51:46;16.10;99.90
52879;DHT22;38747;53.140;6.498;2023-07-13T01:54:12;16.10;99.90
52879;DHT22;38747;53.140;6.498;2023-07-13T01:56:38;16.10;99.90
52879;DHT22;38747;53.140;6.498;2023-07-13T01:59:05;16.10;99.90
52879;DHT22;38747;53.140;6.498;2023-07-13T02:01:30;16.10;99.90
52879;DHT22;38747;53.140;6.498;2023-07-13T02:03:56;16.10;99.90
52879;DHT22;38747;53.140;6.498;2023-07-13T02:06:22;16.10;99.90
52879;DHT22;38747;53.140;6.498;2023-07-13T02:08:48;16.10;99.90
52879;DHT22;38747;53.140;6.498;2023-07-13T02:11:14;16.20;99.90
52879;DHT22;38747;53.140;6.498;2023-07-13T02:13:39;16.10;99.90
52879;DHT22;38747;53.140;6.498;2023-07-13T02:16:05;16.20;99.90
52879;DHT22;38747;53.140;6.498;2023-07-13T02:18:32;16.20;99.90
52879;DHT22;38747;53.140;6.498;2023-07-13T02:20:57;16.20;99.90
52879;DHT22;38747;53.140;6.498;2023-07-13T02:23:23;16.20;99.90
52879;DHT22;38747;53.140;6.498;2023-07-13T02:25:49;16.10;99.90
52879;DHT22;38747;53.140;6.498;2023-07-13T02:28:15;16.10;99.90
52879;DHT22;38747;53.140;6.498;2023-07-13T02:30:40;16.10;99.90
52879;DHT22;38747;53.140;6.498;2023-07-13T02:33:06;16.00;99.90
52879;DHT22;38747;53.140;6.498;2023-07-13T02:35:32;16.00;99.90
52879;DHT22;38747;53.140;6.498;2023-07-13T02:37:58;16.00;99.90
52879;DHT22;38747;53.140;6.498;2023-07-13T02:40:23;16.00;99.90
52879;DHT22;38747;53.140;6.498;2023-07-13T02:42:49;16.00;99.90
52879;DHT22;38747;53.140;6.498;2023-07-13T02:45:15;15.90;99.90
52879;DHT22;38747;53.140;6.498;2023-07-13T02:47:41;15.90;99.90
52879;DHT22;38747;53.140;6.498;2023-07-13T02:50:08;15.80;99.90
52879;DHT22;38747;53.140;6.498;2023-07-13T02:52:34;15.80;99.90
52879;DHT22;38747;53.140;6.498;2023-07-13T02:54:59;15.80;99.90
52879;DHT22;38747;53.140;6.498;2023-07-13T02:57:25;15.80;99.90
52879;DHT22;38747;53.140;6.498;2023-07-13T02:59:51;15.70;99.90
52879;DHT22;38747;53.140;6.498;2023-07-13T03:02:16;15.70;99.90
52879;DHT22;38747;53.140;6.498;2023-07-13T03:04:43;15.70;99.90
52879;DHT22;38747;53.140;6.498;2023-07-13T03:07:09;15.70;99.90
52879;DHT22;38747;53.140;6.498;2023-07-13T03:09:35;15.70;99.90
52879;DHT22;38747;53.140;6.498;2023-07-13T03:12:01;15.60;99.90
52879;DHT22;38747;53.140;6.498;2023-07-13T03:14:27;15.60;99.90
52879;DHT22;38747;53.140;6.498;2023-07-13T03:16:53;15.60;99.90
52879;DHT22;38747;53.140;6.498;2023-07-13T03:19:19;15.50;99.90
52879;DHT22;38747;53.140;6.498;2023-07-13T03:21:45;15.50;99.90
52879;DHT22;38747;53.140;6.498;2023-07-13T03:24:11;15.50;99.90
52879;DHT22;38747;53.140;6.498;2023-07-13T03:26:37;15.50;99.90
52879;DHT22;38747;53.140;6.498;2023-07-13T03:29:03;15.40;99.90
52879;DHT22;38747;53.140;6.498;2023-07-13T03:31:33;15.40;99.90
52879;DHT22;38747;53.140;6.498;2023-07-13T03:33:59;15.40;99.90
52879;DHT22;38747;53.140;6.498;2023-07-13T03:36:27;15.50;99.90
52879;DHT22;38747;53.140;6.498;2023-07-13T03:38:56;15.50;99.90
52879;DHT22;38747;53.140;6.498;2023-07-13T03:41:23;15.60;99.90
52879;DHT22;38747;53.140;6.498;2023-07-13T03:43:50;15.50;99.90
52879;DHT22;38747;53.140;6.498;2023-07-13T03:46:16;15.60;99.90
52879;DHT22;38747;53.140;6.498;2023-07-13T03:48:44;15.60;99.90
52879;DHT22;38747;53.140;6.498;2023-07-13T03:51:11;15.60;99.90
52879;DHT22;38747;53.140;6.498;2023-07-13T03:53:39;15.70;99.90
52879;DHT22;38747;53.140;6.498;2023-07-13T03:56:05;15.70;99.90
52879;DHT22;38747;53.140;6.498;2023-07-13T04:00:59;15.70;99.90
52879;DHT22;38747;53.140;6.498;2023-07-13T04:03:26;15.70;99.90
52879;DHT22;38747;53.140;6.498;2023-07-13T04:05:54;15.70;99.90
52879;DHT22;38747;53.140;6.498;2023-07-13T04:08:28;15.70;99.90
52879;DHT22;38747;53.140;6.498;2023-07-13T04:10:54;15.70;99.90
52879;DHT22;38747;53.140;6.498;2023-07-13T04:13:20;15.70;99.90
52879;DHT22;38747;53.140;6.498;2023-07-13T04:15:46;15.70;99.90
52879;DHT22;38747;53.140;6.498;2023-07-13T04:18:12;15.70;99.90
52879;DHT22;38747;53.140;6.498;2023-07-13T04:20:37;15.80;99.90
52879;DHT22;38747;53.140;6.498;2023-07-13T04:23:03;15.80;99.90
52879;DHT22;38747;53.140;6.498;2023-07-13T04:25:29;15.70;99.90
52879;DHT22;38747;53.140;6.498;2023-07-13T04:27:55;15.70;99.90
52879;DHT22;38747;53.140;6.498;2023-07-13T04:30:22;15.80;99.90
52879;DHT22;38747;53.140;6.498;2023-07-13T04:32:49;15.80;99.90
52879;DHT22;38747;53.140;6.498;2023-07-13T04:35:15;15.90;99.90
52879;DHT22;38747;53.140;6.498;2023-07-13T04:37:41;15.90;99.90
52879;DHT22;38747;53.140;6.498;2023-07-13T04:40:07;16.00;99.90
52879;DHT22;38747;53.140;6.498;2023-07-13T04:42:37;16.00;99.90
52879;DHT22;38747;53.140;6.498;2023-07-13T04:45:03;16.00;99.90
52879;DHT22;38747;53.140;6.498;2023-07-13T04:47:30;16.10;99.90
52879;DHT22;38747;53.140;6.498;2023-07-13T04:49:56;16.10;99.90
52879;DHT22;38747;53.140;6.498;2023-07-13T04:52:23;16.10;99.90
52879;DHT22;38747;53.140;6.498;2023-07-13T04:54:49;16.10;99.90
52879;DHT22;38747;53.140;6.498;2023-07-13T04:57:14;16.10;99.90
52879;DHT22;38747;53.140;6.498;2023-07-13T04:59:40;16.20;99.90
52879;DHT22;38747;53.140;6.498;2023-07-13T05:02:06;16.20;99.90
52879;DHT22;38747;53.140;6.498;2023-07-13T05:04:32;16.30;99.90
52879;DHT22;38747;53.140;6.498;2023-07-13T05:06:59;16.40;99.90
52879;DHT22;38747;53.140;6.498;2023-07-13T05:09:24;16.40;99.90
52879;DHT22;38747;53.140;6.498;2023-07-13T05:11:50;16.50;99.90
52879;DHT22;38747;53.140;6.498;2023-07-13T05:14:16;16.50;99.90
52879;DHT22;38747;53.140;6.498;2023-07-13T05:16:42;16.50;99.90
52879;DHT22;38747;53.140;6.498;2023-07-13T05:19:08;16.60;99.90
52879;DHT22;38747;53.140;6.498;2023-07-13T05:21:34;16.50;99.90
52879;DHT22;38747;53.140;6.498;2023-07-13T05:24:00;16.50;99.90
52879;DHT22;38747;53.140;6.498;2023-07-13T05:26:26;16.60;99.90
52879;DHT22;38747;53.140;6.498;2023-07-13T05:28:52;16.70;99.90
52879;DHT22;38747;53.140;6.498;2023-07-13T05:31:17;16.80;99.90
52879;DHT22;38747;53.140;6.498;2023-07-13T05:33:43;16.80;99.90
52879;DHT22;38747;53.140;6.498;2023-07-13T05:36:09;16.80;99.90
52879;DHT22;38747;53.140;6.498;2023-07-13T05:38:35;16.80;99.90
52879;DHT22;38747;53.140;6.498;2023-07-13T05:41:01;16.90;99.90
52879;DHT22;38747;53.140;6.498;2023-07-13T05:43:26;17.00;99.90
52879;DHT22;38747;53.140;6.498;2023-07-13T05:45:56;17.10;99.90
52879;DHT22;38747;53.140;6.498;2023-07-13T05:48:22;17.10;99.90
52879;DHT22;38747;53.140;6.498;2023-07-13T05:50:48;17.10;99.90
52879;DHT22;38747;53.140;6.498;2023-07-13T05:53:15;17.10;99.90
52879;DHT22;38747;53.140;6.498;2023-07-13T05:55:44;17.10;99.90
52879;DHT22;38747;53.140;6.498;2023-07-13T05:58:13;17.10;99.90
52879;DHT22;38747;53.140;6.498;2023-07-13T06:00:39;17.20;99.90
52879;DHT22;38747;53.140;6.498;2023-07-13T06:03:06;17.20;99.90
52879;DHT22;38747;53.140;6.498;2023-07-13T06:05:33;17.20;99.90
52879;DHT22;38747;53.140;6.498;2023-07-13T06:08:00;17.30;99.90
52879;DHT22;38747;53.140;6.498;2023-07-13T06:10:26;17.30;99.90
52879;DHT22;38747;53.140;6.498;2023-07-13T06:12:51;17.30;99.90
52879;DHT22;38747;53.140;6.498;2023-07-13T06:15:17;17.30;99.90
52879;DHT22;38747;53.140;6.498;2023-07-13T06:17:43;17.40;99.90
52879;DHT22;38747;53.140;6.498;2023-07-13T06:20:09;17.40;99.90
52879;DHT22;38747;53.140;6.498;2023-07-13T06:22:35;17.40;99.90
52879;DHT22;38747;53.140;6.498;2023-07-13T06:25:01;17.50;99.90
52879;DHT22;38747;53.140;6.498;2023-07-13T06:27:27;17.60;99.90
52879;DHT22;38747;53.140;6.498;2023-07-13T06:29:53;17.60;99.90
52879;DHT22;38747;53.140;6.498;2023-07-13T06:32:19;17.70;99.90
52879;DHT22;38747;53.140;6.498;2023-07-13T06:34:44;17.70;99.90
52879;DHT22;38747;53.140;6.498;2023-07-13T06:37:10;17.80;99.90
52879;DHT22;38747;53.140;6.498;2023-07-13T06:39:36;17.80;99.90
52879;DHT22;38747;53.140;6.498;2023-07-13T06:42:02;17.90;99.90
52879;DHT22;38747;53.140;6.498;2023-07-13T06:44:27;18.00;99.90
52879;DHT22;38747;53.140;6.498;2023-07-13T06:46:53;18.00;99.90
52879;DHT22;38747;53.140;6.498;2023-07-13T06:49:19;18.10;99.90
52879;DHT22;38747;53.140;6.498;2023-07-13T06:51:44;18.10;99.90
52879;DHT22;38747;53.140;6.498;2023-07-13T06:54:10;18.10;99.90
52879;DHT22;38747;53.140;6.498;2023-07-13T06:56:36;18.20;99.90
52879;DHT22;38747;53.140;6.498;2023-07-13T06:59:02;18.30;99.90
52879;DHT22;38747;53.140;6.498;2023-07-13T07:01:27;18.40;99.90
52879;DHT22;38747;53.140;6.498;2023-07-13T07:03:53;18.50;99.90
52879;DHT22;38747;53.140;6.498;2023-07-13T07:06:21;18.60;99.90
52879;DHT22;38747;53.140;6.498;2023-07-13T07:08:49;18.80;99.90
52879;DHT22;38747;53.140;6.498;2023-07-13T07:11:24;18.90;99.90
52879;DHT22;38747;53.140;6.498;2023-07-13T07:13:50;19.00;99.90
52879;DHT22;38747;53.140;6.498;2023-07-13T07:16:16;19.00;99.90
52879;DHT22;38747;53.140;6.498;2023-07-13T07:18:42;18.90;99.90
52879;DHT22;38747;53.140;6.498;2023-07-13T07:21:08;18.90;99.90
52879;DHT22;38747;53.140;6.498;2023-07-13T07:23:34;18.80;99.90
52879;DHT22;38747;53.140;6.498;2023-07-13T07:26:00;18.70;99.90
52879;DHT22;38747;53.140;6.498;2023-07-13T07:28:25;18.60;99.90
52879;DHT22;38747;53.140;6.498;2023-07-13T07:30:54;18.60;99.90
52879;DHT22;38747;53.140;6.498;2023-07-13T07:33:20;18.50;99.90
52879;DHT22;38747;53.140;6.498;2023-07-13T07:35:46;18.50;99.90
52879;DHT22;38747;53.140;6.498;2023-07-13T07:38:12;18.50;99.90
52879;DHT22;38747;53.140;6.498;2023-07-13T07:40:39;18.60;99.90
52879;DHT22;38747;53.140;6.498;2023-07-13T07:43:06;18.70;99.90
52879;DHT22;38747;53.140;6.498;2023-07-13T07:45:32;18.70;99.90
52879;DHT22;38747;53.140;6.498;2023-07-13T07:47:58;18.70;99.90
52879;DHT22;38747;53.140;6.498;2023-07-13T07:50:28;18.60;99.90
52879;DHT22;38747;53.140;6.498;2023-07-13T07:52:54;18.60;99.90
52879;DHT22;38747;53.140;6.498;2023-07-13T07:55:22;18.50;99.90
52879;DHT22;38747;53.140;6.498;2023-07-13T07:57:48;18.50;99.90
52879;DHT22;38747;53.140;6.498;2023-07-13T08:00:15;18.50;99.90
52879;DHT22;38747;53.140;6.498;2023-07-13T08:02:41;18.40;99.90
52879;DHT22;38747;53.140;6.498;2023-07-13T08:05:08;18.50;99.90
52879;DHT22;38747;53.140;6.498;2023-07-13T08:07:34;18.40;99.90
52879;DHT22;38747;53.140;6.498;2023-07-13T08:10:00;18.50;99.90
52879;DHT22;38747;53.140;6.498;2023-07-13T08:12:26;18.50;99.90
52879;DHT22;38747;53.140;6.498;2023-07-13T08:14:52;18.60;99.90
52879;DHT22;38747;53.140;6.498;2023-07-13T08:17:24;18.70;99.90
52879;DHT22;38747;53.140;6.498;2023-07-13T08:19:51;18.90;99.90
52879;DHT22;38747;53.140;6.498;2023-07-13T08:22:16;19.00;99.90
52879;DHT22;38747;53.140;6.498;2023-07-13T08:24:42;19.10;99.90
52879;DHT22;38747;53.140;6.498;2023-07-13T08:27:12;19.20;99.90
52879;DHT22;38747;53.140;6.498;2023-07-13T08:29:38;19.30;99.90
52879;DHT22;38747;53.140;6.498;2023-07-13T08:32:06;19.40;99.90
52879;DHT22;38747;53.140;6.498;2023-07-13T08:34:35;19.50;99.90
52879;DHT22;38747;53.140;6.498;2023-07-13T08:37:01;19.60;99.90
52879;DHT22;38747;53.140;6.498;2023-07-13T08:39:29;19.70;99.90
52879;DHT22;38747;53.140;6.498;2023-07-13T08:47:15;20.00;99.90
52879;DHT22;38747;53.140;6.498;2023-07-13T08:49:41;20.20;99.90
52879;DHT22;38747;53.140;6.498;2023-07-13T08:54:55;20.40;99.90
52879;DHT22;38747;53.140;6.498;2023-07-13T08:57:27;20.40;99.90
52879;DHT22;38747;53.140;6.498;2023-07-13T08:59:55;20.50;99.90
52879;DHT22;38747;53.140;6.498;2023-07-13T09:08:14;20.50;99.90
52879;DHT22;38747;53.140;6.498;2023-07-13T09:10:49;20.60;99.90
52879;DHT22;38747;53.140;6.498;2023-07-13T09:16:11;20.80;99.90
52879;DHT22;38747;53.140;6.498;2023-07-13T09:18:46;20.80;99.90
52879;DHT22;38747;53.140;6.498;2023-07-13T09:21:24;20.70;99.90
52879;DHT22;38747;53.140;6.498;2023-07-13T09:23:59;20.70;99.90
52879;DHT22;38747;53.140;6.498;2023-07-13T09:26:28;20.60;99.90
52879;DHT22;38747;53.140;6.498;2023-07-13T09:28:59;20.50;99.90
52879;DHT22;38747;53.140;6.498;2023-07-13T09:31:41;20.30;99.90
52879;DHT22;38747;53.140;6.498;2023-07-13T09:34:14;20.20;99.90
52879;DHT22;38747;53.140;6.498;2023-07-13T09:36:40;20.10;99.90
52879;DHT22;38747;53.140;6.498;2023-07-13T09:39:29;20.10;99.90
52879;DHT22;38747;53.140;6.498;2023-07-13T09:42:00;20.20;99.90
52879;DHT22;38747;53.140;6.498;2023-07-13T09:44:30;20.30;99.90
52879;DHT22;38747;53.140;6.498;2023-07-13T09:46:57;20.30;99.90
52879;DHT22;38747;53.140;6.498;2023-07-13T09:49:25;20.30;99.90
52879;DHT22;38747;53.140;6.498;2023-07-13T09:52:04;20.20;99.90
52879;DHT22;38747;53.140;6.498;2023-07-13T09:54:34;20.30;99.90
52879;DHT22;38747;53.140;6.498;2023-07-13T09:57:01;20.40;99.90
52879;DHT22;38747;53.140;6.498;2023-07-13T09:59:30;20.60;99.90
52879;DHT22;38747;53.140;6.498;2023-07-13T10:01:56;20.90;99.90
52879;DHT22;38747;53.140;6.498;2023-07-13T10:04:31;21.00;99.90
52879;DHT22;38747;53.140;6.498;2023-07-13T10:07:08;21.00;99.90
52879;DHT22;38747;53.140;6.498;2023-07-13T10:09:34;21.10;99.90
52879;DHT22;38747;53.140;6.498;2023-07-13T10:12:01;21.30;99.90
52879;DHT22;38747;53.140;6.498;2023-07-13T10:14:27;21.40;99.90
52879;DHT22;38747;53.140;6.498;2023-07-13T10:17:00;21.60;99.90
52879;DHT22;38747;53.140;6.498;2023-07-13T10:19:34;21.40;99.90
52879;DHT22;38747;53.140;6.498;2023-07-13T10:22:02;21.10;99.90
52879;DHT22;38747;53.140;6.498;2023-07-13T10:24:37;21.00;99.90
52879;DHT22;38747;53.140;6.498;2023-07-13T10:29:35;20.70;99.90
52879;DHT22;38747;53.140;6.498;2023-07-13T10:32:09;20.90;99.90
52879;DHT22;38747;53.140;6.498;2023-07-13T10:34:35;21.00;99.90
52879;DHT22;38747;53.140;6.498;2023-07-13T10:37:01;21.20;99.90
52879;DHT22;38747;53.140;6.498;2023-07-13T10:39:28;21.30;99.90
52879;DHT22;38747;53.140;6.498;2023-07-13T10:42:05;21.30;99.90
52879;DHT22;38747;53.140;6.498;2023-07-13T10:44:33;21.40;99.90
52879;DHT22;38747;53.140;6.498;2023-07-13T10:47:01;21.70;99.90
52879;DHT22;38747;53.140;6.498;2023-07-13T10:49:30;21.90;99.90
52879;DHT22;38747;53.140;6.498;2023-07-13T10:51:57;21.80;99.90
52879;DHT22;38747;53.140;6.498;2023-07-13T10:57:17;21.50;99.90
52879;DHT22;38747;53.140;6.498;2023-07-13T11:00:17;21.30;99.90
52879;DHT22;38747;53.140;6.498;2023-07-13T11:02:43;21.50;99.90
52879;DHT22;38747;53.140;6.498;2023-07-13T11:07:56;22.30;99.90
52879;DHT22;38747;53.140;6.498;2023-07-13T11:10:50;22.70;99.90
52879;DHT22;38747;53.140;6.498;2023-07-13T11:13:55;23.00;99.90
52879;DHT22;38747;53.140;6.498;2023-07-13T11:19:08;23.20;99.90
52879;DHT22;38747;53.140;6.498;2023-07-13T11:24:29;23.70;99.90
52879;DHT22;38747;53.140;6.498;2023-07-13T11:30:31;24.20;99.90
52879;DHT22;38747;53.140;6.498;2023-07-13T11:33:21;23.90;99.90
52879;DHT22;38747;53.140;6.498;2023-07-13T11:38:42;23.40;99.90
52879;DHT22;38747;53.140;6.498;2023-07-13T11:41:27;23.60;99.90
52879;DHT22;38747;53.140;6.498;2023-07-13T11:44:01;23.90;99.90
52879;DHT22;38747;53.140;6.498;2023-07-13T11:46:28;24.20;99.90
52879;DHT22;38747;53.140;6.498;2023-07-13T11:48:54;24.00;99.90
52879;DHT22;38747;53.140;6.498;2023-07-13T11:51:26;23.90;99.90
52879;DHT22;38747;53.140;6.498;2023-07-13T11:53:54;24.00;99.90
52879;DHT22;38747;53.140;6.498;2023-07-13T11:56:21;24.30;99.90
52879;DHT22;38747;53.140;6.498;2023-07-13T11:58:50;24.50;99.90
52879;DHT22;38747;53.140;6.498;2023-07-13T12:01:30;24.60;99.90
52879;DHT22;38747;53.140;6.498;2023-07-13T12:04:00;24.70;99.90
52879;DHT22;38747;53.140;6.498;2023-07-13T12:06:31;24.50;99.90
52879;DHT22;38747;53.140;6.498;2023-07-13T12:09:02;24.10;99.90
52879;DHT22;38747;53.140;6.498;2023-07-13T12:11:29;24.20;99.90
52879;DHT22;38747;53.140;6.498;2023-07-13T12:13:55;24.30;99.90
52879;DHT22;38747;53.140;6.498;2023-07-13T12:16:32;24.40;99.90
52879;DHT22;38747;53.140;6.498;2023-07-13T12:19:00;24.10;99.90
52879;DHT22;38747;53.140;6.498;2023-07-13T12:21:31;24.00;99.90
52879;DHT22;38747;53.140;6.498;2023-07-13T12:23:57;23.70;99.90
52879;DHT22;38747;53.140;6.498;2023-07-13T12:26:23;23.70;99.90
52879;DHT22;38747;53.140;6.498;2023-07-13T12:28:52;23.70;99.90
52879;DHT22;38747;53.140;6.498;2023-07-13T12:31:41;23.90;99.90
52879;DHT22;38747;53.140;6.498;2023-07-13T12:34:13;24.00;99.90
52879;DHT22;38747;53.140;6.498;2023-07-13T12:36:59;24.30;99.90
52879;DHT22;38747;53.140;6.498;2023-07-13T12:42:25;24.70;99.90
52879;DHT22;38747;53.140;6.498;2023-07-13T12:44:58;25.00;98.80
52879;DHT22;38747;53.140;6.498;2023-07-13T12:47:25;25.00;99.90
52879;DHT22;38747;53.140;6.498;2023-07-13T12:49:56;24.80;99.00
52879;DHT22;38747;53.140;6.498;2023-07-13T12:52:32;24.50;96.50
52879;DHT22;38747;53.140;6.498;2023-07-13T12:55:17;24.60;99.90
52879;DHT22;38747;53.140;6.498;2023-07-13T12:57:54;24.70;99.90
52879;DHT22;38747;53.140;6.498;2023-07-13T13:00:30;24.40;99.90
52879;DHT22;38747;53.140;6.498;2023-07-13T13:03:35;24.20;99.90
52879;DHT22;38747;53.140;6.498;2023-07-13T13:08:41;24.00;99.90
52879;DHT22;38747;53.140;6.498;2023-07-13T13:11:08;23.90;99.90
52879;DHT22;38747;53.140;6.498;2023-07-13T13:13:35;24.00;99.90
52879;DHT22;38747;53.140;6.498;2023-07-13T13:16:22;24.20;99.90
52879;DHT22;38747;53.140;6.498;2023-07-13T13:18:50;24.20;99.90
52879;DHT22;38747;53.140;6.498;2023-07-13T13:21:17;24.40;99.90
52879;DHT22;38747;53.140;6.498;2023-07-13T13:23:44;24.60;99.90
52879;DHT22;38747;53.140;6.498;2023-07-13T13:26:14;24.70;99.90
52879;DHT22;38747;53.140;6.498;2023-07-13T13:28:43;24.70;98.00
52879;DHT22;38747;53.140;6.498;2023-07-13T13:31:10;24.50;99.60
52879;DHT22;38747;53.140;6.498;2023-07-13T13:33:38;24.50;99.90
52879;DHT22;38747;53.140;6.498;2023-07-13T13:36:17;24.50;99.40
52879;DHT22;38747;53.140;6.498;2023-07-13T13:38:44;24.30;99.90
52879;DHT22;38747;53.140;6.498;2023-07-13T13:41:11;24.40;99.90
52879;DHT22;38747;53.140;6.498;2023-07-13T13:43:39;24.50;99.90
52879;DHT22;38747;53.140;6.498;2023-07-13T13:46:13;24.60;99.90
52879;DHT22;38747;53.140;6.498;2023-07-13T13:48:40;24.60;96.80
52879;DHT22;38747;53.140;6.498;2023-07-13T13:51:22;24.80;99.90
52879;DHT22;38747;53.140;6.498;2023-07-13T13:53:49;24.90;99.90
52879;DHT22;38747;53.140;6.498;2023-07-13T13:56:15;25.00;99.80
52879;DHT22;38747;53.140;6.498;2023-07-13T13:58:43;24.80;99.40
52879;DHT22;38747;53.140;6.498;2023-07-13T14:01:20;24.50;99.30
52879;DHT22;38747;53.140;6.498;2023-07-13T14:03:46;24.20;97.60
52879;DHT22;38747;53.140;6.498;2023-07-13T14:06:15;24.00;99.90
52879;DHT22;38747;53.140;6.498;2023-07-13T14:08:42;24.20;99.90
52879;DHT22;38747;53.140;6.498;2023-07-13T14:11:13;24.30;99.90
52879;DHT22;38747;53.140;6.498;2023-07-13T14:13:42;24.30;99.90
52879;DHT22;38747;53.140;6.498;2023-07-13T14:16:20;24.40;99.90
52879;DHT22;38747;53.140;6.498;2023-07-13T14:18:48;24.60;99.90
52879;DHT22;38747;53.140;6.498;2023-07-13T14:21:19;24.60;98.60
52879;DHT22;38747;53.140;6.498;2023-07-13T14:23:46;24.70;99.90
52879;DHT22;38747;53.140;6.498;2023-07-13T14:26:15;25.00;99.90
52879;DHT22;38747;53.140;6.498;2023-07-13T14:28:44;24.90;99.90
52879;DHT22;38747;53.140;6.498;2023-07-13T14:31:15;24.60;99.90
52879;DHT22;38747;53.140;6.498;2023-07-13T14:33:41;24.20;97.20
52879;DHT22;38747;53.140;6.498;2023-07-13T14:36:33;24.10;99.90
52879;DHT22;38747;53.140;6.498;2023-07-13T14:39:01;24.20;99.90
52879;DHT22;38747;53.140;6.498;2023-07-13T14:41:34;24.20;99.90
52879;DHT22;38747;53.140;6.498;2023-07-13T14:43:59;24.20;99.90
52879;DHT22;38747;53.140;6.498;2023-07-13T14:46:31;24.40;99.90
52879;DHT22;38747;53.140;6.498;2023-07-13T14:49:06;24.60;99.90
52879;DHT22;38747;53.140;6.498;2023-07-13T14:51:34;24.50;98.80
52879;DHT22;38747;53.140;6.498;2023-07-13T14:54:03;24.20;99.90
52879;DHT22;38747;53.140;6.498;2023-07-13T14:56:29;24.10;99.90
52879;DHT22;38747;53.140;6.498;2023-07-13T14:58:55;23.90;99.90
52879;DHT22;38747;53.140;6.498;2023-07-13T15:01:21;23.80;99.90
52879;DHT22;38747;53.140;6.498;2023-07-13T15:03:50;23.80;99.90
52879;DHT22;38747;53.140;6.498;2023-07-13T15:06:17;23.90;99.90
52879;DHT22;38747;53.140;6.498;2023-07-13T15:08:44;23.90;99.90
52879;DHT22;38747;53.140;6.498;2023-07-13T15:11:10;23.90;99.90
52879;DHT22;38747;53.140;6.498;2023-07-13T15:13:40;24.00;99.90
52879;DHT22;38747;53.140;6.498;2023-07-13T15:16:25;23.90;99.90
52879;DHT22;38747;53.140;6.498;2023-07-13T15:18:51;24.00;99.90
52879;DHT22;38747;53.140;6.498;2023-07-13T15:21:21;23.90;99.90
52879;DHT22;38747;53.140;6.498;2023-07-13T15:23:48;23.80;99.90
52879;DHT22;38747;53.140;6.498;2023-07-13T15:26:15;23.80;99.90
52879;DHT22;38747;53.140;6.498;2023-07-13T15:28:45;23.90;99.90
52879;DHT22;38747;53.140;6.498;2023-07-13T15:31:23;23.90;99.90
52879;DHT22;38747;53.140;6.498;2023-07-13T15:33:51;23.90;99.90
52879;DHT22;38747;53.140;6.498;2023-07-13T15:36:18;23.80;99.90
52879;DHT22;38747;53.140;6.498;2023-07-13T15:38:45;23.50;99.90
52879;DHT22;38747;53.140;6.498;2023-07-13T15:43:53;23.50;99.90
52879;DHT22;38747;53.140;6.498;2023-07-13T15:46:20;23.30;99.90
52879;DHT22;38747;53.140;6.498;2023-07-13T15:48:48;23.10;99.90
52879;DHT22;38747;53.140;6.498;2023-07-13T15:53:54;23.10;99.90
52879;DHT22;38747;53.140;6.498;2023-07-13T15:56:25;23.10;99.90
52879;DHT22;38747;53.140;6.498;2023-07-13T15:58:55;23.10;99.90
52879;DHT22;38747;53.140;6.498;2023-07-13T16:01:22;23.10;99.90
52879;DHT22;38747;53.140;6.498;2023-07-13T16:03:49;23.00;99.90
52879;DHT22;38747;53.140;6.498;2023-07-13T16:06:19;23.00;99.90
52879;DHT22;38747;53.140;6.498;2023-07-13T16:08:49;23.00;99.90
52879;DHT22;38747;53.140;6.498;2023-07-13T16:13:49;23.00;99.90
52879;DHT22;38747;53.140;6.498;2023-07-13T16:16:21;23.00;99.90
52879;DHT22;38747;53.140;6.498;2023-07-13T16:18:52;23.00;99.90
52879;DHT22;38747;53.140;6.498;2023-07-13T16:21:20;22.90;99.90
52879;DHT22;38747;53.140;6.498;2023-07-13T16:23:47;22.80;99.90
52879;DHT22;38747;53.140;6.498;2023-07-13T16:28:51;22.60;99.90
52879;DHT22;38747;53.140;6.498;2023-07-13T16:31:26;22.50;99.90
52879;DHT22;38747;53.140;6.498;2023-07-13T16:33:52;22.40;99.90
52879;DHT22;38747;53.140;6.498;2023-07-13T16:36:18;22.50;99.90